Time;durP1;ratioP1;P1;durP2;ratioP2;P2;SDS_P1;SDS_P2;PMS_P1;PMS_P2;Temp;Humidity;BMP_temperature;BMP_pressure;BME280_temperature;BME280_humidity;BME280_pressure;Samples;Min_cycle;Max_cycle;Signal;HPM_P1;HPM_P2
2024/04/03 18:37:38;;;;;;;1.35;0.75;;;11.10;99.90;;;;;;5078943;27;20317;-72
2024/04/03 18:40:07;;;;;;;2.15;1.05;;;11.50;99.90;;;;;;5066111;28;20560;-72
2024/04/03 18:42:34;;;;;;;0.95;0.80;;;10.50;99.90;;;;;;5064483;28;20048;-73
2024/04/03 18:44:59;;;;;;;5.25;1.00;;;10.20;99.90;;;;;;5061019;28;20016;-72
2024/04/03 18:47:25;;;;;;;3.92;1.45;;;10.00;99.90;;;;;;5095871;28;20032;-72
2024/04/03 18:49:51;;;;;;;1.70;0.95;;;10.00;99.90;;;;;;5094305;28;20032;-75
2024/04/03 18:52:16;;;;;;;1.20;0.90;;;10.10;99.90;;;;;;5066187;28;20491;-73
2024/04/03 18:54:42;;;;;;;3.63;1.08;;;10.00;99.90;;;;;;5066356;28;20032;-72
2024/04/03 18:57:07;;;;;;;1.73;0.90;;;10.00;99.90;;;;;;5062295;28;20017;-72
2024/04/03 18:59:33;;;;;;;3.67;1.20;;;10.00;99.90;;;;;;5064027;28;20027;-73
2024/04/03 19:01:59;;;;;;;0.73;0.70;;;10.00;99.90;;;;;;5065147;28;20029;-72
2024/04/03 19:04:24;;;;;;;1.48;1.08;;;10.00;99.90;;;;;;5065311;28;20035;-75
2024/04/03 19:06:50;;;;;;;1.33;0.85;;;10.00;99.90;;;;;;5064040;28;20029;-74
2024/04/03 19:09:17;;;;;;;1.20;0.77;;;10.00;99.90;;;;;;5065705;28;20418;-72
2024/04/03 19:11:42;;;;;;;2.72;0.90;;;10.00;99.90;;;;;;5063806;28;20040;-72
2024/04/03 19:14:08;;;;;;;1.33;0.70;;;10.00;99.90;;;;;;5065072;28;20467;-73
2024/04/03 19:16:34;;;;;;;0.70;0.68;;;10.00;99.90;;;;;;5066175;28;20548;-72
2024/04/03 19:18:59;;;;;;;4.47;1.25;;;10.10;99.90;;;;;;5065194;28;20013;-72
2024/04/03 19:21:25;;;;;;;2.97;0.80;;;10.10;99.90;;;;;;5064834;28;20035;-74
2024/04/03 19:23:50;;;;;;;3.15;1.10;;;10.10;99.90;;;;;;5066141;28;20021;-74
2024/04/03 19:26:16;;;;;;;2.42;1.00;;;10.20;99.90;;;;;;5065336;28;20021;-73
2024/04/03 19:28:41;;;;;;;0.80;0.70;;;10.10;99.90;;;;;;5064773;28;20021;-73
2024/04/03 19:31:08;;;;;;;0.80;0.80;;;10.10;99.90;;;;;;5065763;28;20043;-74
2024/04/03 19:33:37;;;;;;;1.52;0.90;;;10.10;99.90;;;;;;5064468;28;20059;-72
2024/04/03 19:36:07;;;;;;;1.58;0.95;;;10.10;99.90;;;;;;5107248;28;20025;-72
2024/04/03 19:38:34;;;;;;;;;;;10.10;99.90;;;;;;5072849;28;20017;-72
2024/04/03 19:40:59;;;;;;;1.42;0.93;;;10.10;99.90;;;;;;5073329;28;19915;-73
2024/04/03 19:43:25;;;;;;;0.95;0.88;;;10.10;99.90;;;;;;5075357;28;20070;-72
2024/04/03 19:45:55;;;;;;;0.70;0.70;;;10.20;99.90;;;;;;5075089;28;20482;-73
2024/04/03 19:48:20;;;;;;;1.25;0.70;;;10.10;99.90;;;;;;5060747;28;20507;-72
2024/04/03 19:50:46;;;;;;;3.40;0.93;;;10.10;99.90;;;;;;5061258;28;20064;-73
2024/04/03 19:53:13;;;;;;;0.75;0.75;;;10.10;99.90;;;;;;5058433;28;20111;-72
2024/04/03 19:55:39;;;;;;;2.97;0.90;;;10.10;99.90;;;;;;5062663;28;20064;-73
2024/04/03 19:58:05;;;;;;;1.10;0.88;;;10.00;99.90;;;;;;5062152;28;20029;-73
2024/04/03 20:00:31;;;;;;;2.55;1.08;;;10.10;99.90;;;;;;5092698;28;20025;-73
2024/04/03 20:02:57;;;;;;;5.90;1.00;;;10.10;99.90;;;;;;5062632;28;20020;-74
2024/04/03 20:05:24;;;;;;;3.47;1.20;;;10.00;99.90;;;;;;5060040;28;20074;-72
2024/04/03 20:07:50;;;;;;;1.10;1.00;;;10.00;99.90;;;;;;5057397;28;20078;-73
2024/04/03 20:10:23;;;;;;;1.67;1.10;;;10.10;99.90;;;;;;5057130;28;20021;-74
2024/04/03 20:12:48;;;;;;;0.75;0.75;;;10.00;99.90;;;;;;5060284;28;20034;-73
2024/04/03 20:15:14;;;;;;;2.13;0.93;;;10.00;99.90;;;;;;5061531;28;20021;-73
2024/04/03 20:17:39;;;;;;;3.08;0.88;;;10.00;99.90;;;;;;5056908;28;20467;-72
2024/04/03 20:20:08;;;;;;;5.90;1.00;;;10.00;99.90;;;;;;5059846;28;20024;-73
2024/04/03 20:22:34;;;;;;;0.98;0.93;;;10.00;99.90;;;;;;5059866;28;20047;-76
2024/04/03 20:25:03;;;;;;;0.85;0.70;;;10.00;99.90;;;;;;5058063;28;20045;-75
2024/04/03 20:27:29;;;;;;;1.60;0.98;;;9.90;99.90;;;;;;5057447;28;20025;-75
2024/04/03 20:29:56;;;;;;;1.20;1.10;;;10.00;99.90;;;;;;5063315;28;20543;-74
2024/04/03 20:32:22;;;;;;;1.13;0.77;;;10.00;99.90;;;;;;5058296;28;20021;-74
2024/04/03 20:34:48;;;;;;;0.95;0.90;;;10.00;99.90;;;;;;5057234;28;20030;-73
2024/04/03 20:37:13;;;;;;;1.08;0.98;;;9.90;99.90;;;;;;5059011;28;20040;-73
2024/04/03 20:39:39;;;;;;;1.80;1.33;;;9.90;99.90;;;;;;5092457;28;20660;-72
2024/04/03 20:42:06;;;;;;;3.63;1.33;;;10.00;99.90;;;;;;5051230;28;20017;-73
2024/04/03 20:44:33;;;;;;;2.30;1.10;;;9.90;99.90;;;;;;5051468;28;20053;-75
2024/04/03 20:47:01;;;;;;;2.78;0.80;;;10.00;99.90;;;;;;5050182;28;20025;-73
2024/04/03 20:49:27;;;;;;;1.08;0.88;;;10.00;99.90;;;;;;5049914;28;20017;-76
2024/04/03 20:51:53;;;;;;;1.67;1.02;;;10.00;99.90;;;;;;5051142;28;20394;-76
2024/04/03 20:54:20;;;;;;;1.30;0.80;;;9.90;99.90;;;;;;5050965;28;20033;-73
2024/04/03 20:56:46;;;;;;;0.90;0.90;;;9.90;99.90;;;;;;5050294;28;20025;-75
2024/04/03 20:59:11;;;;;;;5.35;1.13;;;9.90;99.90;;;;;;5048152;28;20089;-75
2024/04/03 21:01:37;;;;;;;5.63;1.40;;;9.90;99.90;;;;;;5049467;28;20017;-73
2024/04/03 21:04:03;;;;;;;1.65;0.90;;;10.00;99.90;;;;;;5050547;28;20544;-73
2024/04/03 21:06:28;;;;;;;0.90;0.82;;;10.00;99.90;;;;;;5082728;28;20278;-74
2024/04/03 21:08:54;;;;;;;3.17;1.08;;;10.00;99.90;;;;;;5049862;28;20403;-76
2024/04/03 21:11:19;;;;;;;1.80;1.20;;;9.90;99.90;;;;;;5048219;28;20450;-72
2024/04/03 21:13:45;;;;;;;0.88;0.85;;;10.00;99.90;;;;;;5050563;28;20356;-72
2024/04/03 21:16:10;;;;;;;1.05;0.95;;;10.00;99.90;;;;;;5051288;28;20439;-72
2024/04/03 21:18:36;;;;;;;3.28;1.05;;;10.00;99.90;;;;;;5078795;28;20017;-72
2024/04/03 21:21:03;;;;;;;6.07;1.15;;;10.00;99.90;;;;;;5050234;28;20399;-72
2024/04/03 21:23:29;;;;;;;3.63;0.85;;;10.10;99.90;;;;;;5050543;28;20032;-73
2024/04/03 21:25:54;;;;;;;1.83;0.90;;;10.00;99.90;;;;;;5082215;28;20577;-72
2024/04/03 21:28:20;;;;;;;3.55;0.90;;;10.10;99.90;;;;;;5050010;28;20096;-72
2024/04/03 21:30:47;;;;;;;2.78;0.98;;;10.10;99.90;;;;;;5050317;28;20108;-72
2024/04/03 21:33:12;;;;;;;1.20;0.98;;;10.10;99.90;;;;;;5081968;28;20052;-72
2024/04/03 21:35:38;;;;;;;4.82;1.27;;;10.00;99.90;;;;;;5049831;28;20068;-72
2024/04/03 21:38:03;;;;;;;2.25;1.33;;;10.00;99.90;;;;;;5050465;28;20025;-74
2024/04/03 21:40:29;;;;;;;1.83;0.80;;;10.00;99.90;;;;;;5048805;28;20550;-73
2024/04/03 21:42:55;;;;;;;5.82;0.90;;;10.10;99.90;;;;;;5050181;28;20013;-72
2024/04/03 21:45:21;;;;;;;3.28;1.17;;;10.10;99.90;;;;;;5048914;28;20025;-72
2024/04/03 21:47:46;;;;;;;1.15;1.02;;;10.10;99.90;;;;;;5049878;28;20102;-72
2024/04/03 21:50:13;;;;;;;0.80;0.80;;;10.00;99.90;;;;;;5049154;28;20433;-74
2024/04/03 21:52:38;;;;;;;5.30;1.40;;;10.10;99.90;;;;;;5049429;28;20116;-73
2024/04/03 21:55:05;;;;;;;0.88;0.88;;;10.00;99.90;;;;;;5048744;28;20107;-72
2024/04/03 21:57:31;;;;;;;2.15;0.90;;;10.10;99.90;;;;;;5047830;28;20028;-73
2024/04/03 21:59:57;;;;;;;1.58;0.95;;;10.10;99.90;;;;;;5047979;28;20747;-74
2024/04/03 22:02:23;;;;;;;0.90;0.75;;;10.10;99.90;;;;;;5049733;28;20025;-74
2024/04/03 22:04:48;;;;;;;1.67;1.00;;;10.10;99.90;;;;;;5048706;28;20020;-73
2024/04/03 22:07:14;;;;;;;1.45;1.38;;;10.10;99.90;;;;;;5047356;28;20029;-73
2024/04/03 22:09:40;;;;;;;1.35;1.00;;;10.00;99.90;;;;;;5049621;28;20032;-72
2024/04/03 22:12:05;;;;;;;1.92;1.52;;;10.00;99.90;;;;;;5080447;28;20024;-74
2024/04/03 22:14:31;;;;;;;1.02;0.75;;;10.10;99.90;;;;;;5049309;28;20040;-74
2024/04/03 22:16:57;;;;;;;2.03;1.15;;;10.10;99.90;;;;;;5049688;28;20052;-72
2024/04/03 22:19:22;;;;;;;1.38;1.10;;;10.10;99.90;;;;;;5048114;28;20021;-75
2024/04/03 22:21:48;;;;;;;1.80;0.90;;;10.10;99.90;;;;;;5081778;28;20132;-75
2024/04/03 22:24:13;;;;;;;4.22;1.25;;;10.10;99.90;;;;;;5049796;28;20024;-73
2024/04/03 22:26:39;;;;;;;3.22;1.02;;;10.00;99.90;;;;;;5048071;28;20028;-72
2024/04/03 22:29:04;;;;;;;1.13;1.02;;;10.10;99.90;;;;;;5047889;28;20016;-72
2024/04/03 22:31:30;;;;;;;3.40;0.90;;;10.10;99.90;;;;;;5049468;28;20104;-73
2024/04/03 22:33:55;;;;;;;3.42;1.20;;;10.10;99.90;;;;;;5049887;28;20386;-72
2024/04/03 22:36:21;;;;;;;2.05;1.05;;;10.10;99.90;;;;;;5049183;28;20029;-72
2024/04/03 22:38:46;;;;;;;5.30;1.00;;;10.10;99.90;;;;;;5050659;28;20017;-74
2024/04/03 22:41:12;;;;;;;1.75;0.90;;;10.10;99.90;;;;;;5049541;28;20017;-71
2024/04/03 22:43:38;;;;;;;1.65;0.88;;;10.10;99.90;;;;;;5049373;28;20032;-74
2024/04/03 22:46:03;;;;;;;4.05;1.10;;;10.00;99.90;;;;;;5049135;28;20032;-75
2024/04/03 22:48:30;;;;;;;2.75;1.08;;;10.10;99.90;;;;;;5048875;28;20036;-73
2024/04/03 22:50:56;;;;;;;0.68;0.68;;;10.00;99.90;;;;;;5047760;28;20024;-72
2024/04/03 22:53:22;;;;;;;9.85;0.90;;;10.00;99.90;;;;;;5045149;28;20502;-75
2024/04/03 22:55:47;;;;;;;1.15;0.90;;;9.90;99.90;;;;;;5049320;28;20442;-73
2024/04/03 22:58:14;;;;;;;4.13;1.10;;;10.00;99.90;;;;;;5049226;28;20021;-74
2024/04/03 23:00:40;;;;;;;1.35;1.10;;;9.90;99.90;;;;;;5048839;28;20040;-76
2024/04/03 23:03:06;;;;;;;2.03;1.30;;;10.00;99.90;;;;;;5049073;28;20037;-73
2024/04/03 23:05:32;;;;;;;1.10;1.00;;;10.00;99.90;;;;;;5048989;28;20021;-73
2024/04/03 23:07:58;;;;;;;2.17;1.23;;;9.90;99.90;;;;;;5047279;28;20021;-75
2024/04/03 23:10:26;;;;;;;1.17;0.90;;;10.00;99.90;;;;;;5048175;28;20092;-73
2024/04/03 23:12:52;;;;;;;2.53;1.00;;;10.00;99.90;;;;;;5049293;28;20036;-73
2024/04/03 23:15:18;;;;;;;2.40;1.10;;;10.00;99.90;;;;;;5047807;28;20561;-74
2024/04/03 23:17:43;;;;;;;1.77;0.85;;;9.90;99.90;;;;;;5048987;28;20028;-72
2024/04/03 23:20:09;;;;;;;3.20;0.90;;;10.00;99.90;;;;;;5048873;28;20406;-73
2024/04/03 23:22:35;;;;;;;3.90;1.00;;;10.00;99.90;;;;;;5049896;28;20028;-72
2024/04/03 23:25:00;;;;;;;0.80;0.80;;;10.00;99.90;;;;;;5048926;28;20018;-73
2024/04/03 23:27:26;;;;;;;1.27;0.88;;;9.90;99.90;;;;;;5051829;28;20067;-73
2024/04/03 23:29:51;;;;;;;1.05;0.95;;;9.90;99.90;;;;;;5052412;28;20013;-76
2024/04/03 23:32:21;;;;;;;1.45;0.90;;;9.90;99.90;;;;;;5049393;28;20074;-73
2024/04/03 23:34:47;;;;;;;2.22;1.23;;;9.90;99.90;;;;;;5052780;28;20033;-73
2024/04/03 23:37:13;;;;;;;2.28;1.20;;;9.80;99.90;;;;;;5054057;28;20385;-75
2024/04/03 23:39:38;;;;;;;1.33;0.80;;;9.90;99.90;;;;;;5052368;28;20108;-75
2024/04/03 23:42:04;;;;;;;1.83;0.80;;;9.80;99.90;;;;;;5052258;28;20017;-73
2024/04/03 23:44:29;;;;;;;0.80;0.60;;;9.80;99.90;;;;;;5050934;28;20028;-76
2024/04/03 23:46:55;;;;;;;2.58;0.90;;;9.80;99.90;;;;;;5050667;28;20116;-72
2024/04/03 23:49:20;;;;;;;4.22;0.93;;;9.80;99.90;;;;;;5050442;28;20021;-73
2024/04/03 23:51:46;;;;;;;2.80;0.88;;;9.90;99.90;;;;;;5051538;28;20048;-73
2024/04/03 23:54:12;;;;;;;2.25;0.80;;;9.90;99.90;;;;;;5051115;28;20074;-73
2024/04/03 23:56:40;;;;;;;1.85;0.90;;;9.80;99.90;;;;;;5052161;28;20081;-74
2024/04/03 23:59:06;;;;;;;2.60;1.20;;;9.80;99.90;;;;;;5051578;28;20538;-72
